sensor_id;sensor_type;location;lat;lon;timestamp;P1;durP1;ratioP1;P2;durP2;ratioP2
61689;SDS011;47601;52.086;4.878;2022-07-23T00:01:28;10.55;;;5.63;;
61689;SDS011;47601;52.086;4.878;2022-07-23T00:03:54;11.50;;;5.55;;
61689;SDS011;47601;52.086;4.878;2022-07-23T00:06:20;9.20;;;5.75;;
61689;SDS011;47601;52.086;4.878;2022-07-23T00:08:46;6.53;;;5.57;;
61689;SDS011;47601;52.086;4.878;2022-07-23T00:11:12;7.70;;;6.28;;
61689;SDS011;47601;52.086;4.878;2022-07-23T00:13:38;9.70;;;6.10;;
61689;SDS011;47601;52.086;4.878;2022-07-23T00:16:04;9.40;;;6.05;;
61689;SDS011;47601;52.086;4.878;2022-07-23T00:18:30;7.55;;;5.95;;
61689;SDS011;47601;52.086;4.878;2022-07-23T00:20:56;6.50;;;5.60;;
61689;SDS011;47601;52.086;4.878;2022-07-23T00:23:21;7.05;;;5.53;;
61689;SDS011;47601;52.086;4.878;2022-07-23T00:25:47;7.28;;;5.25;;
61689;SDS011;47601;52.086;4.878;2022-07-23T00:28:12;8.68;;;6.30;;
61689;SDS011;47601;52.086;4.878;2022-07-23T00:30:38;11.98;;;6.35;;
61689;SDS011;47601;52.086;4.878;2022-07-23T00:33:05;6.57;;;5.93;;
61689;SDS011;47601;52.086;4.878;2022-07-23T00:35:35;6.78;;;5.80;;
61689;SDS011;47601;52.086;4.878;2022-07-23T00:38:02;12.18;;;6.70;;
61689;SDS011;47601;52.086;4.878;2022-07-23T00:40:29;10.70;;;6.95;;
61689;SDS011;47601;52.086;4.878;2022-07-23T00:42:54;7.25;;;6.18;;
61689;SDS011;47601;52.086;4.878;2022-07-23T00:45:20;8.05;;;6.55;;
61689;SDS011;47601;52.086;4.878;2022-07-23T00:47:45;9.77;;;6.40;;
61689;SDS011;47601;52.086;4.878;2022-07-23T00:50:11;9.05;;;6.22;;
61689;SDS011;47601;52.086;4.878;2022-07-23T00:52:38;6.75;;;5.82;;
61689;SDS011;47601;52.086;4.878;2022-07-23T00:55:04;7.55;;;6.75;;
61689;SDS011;47601;52.086;4.878;2022-07-23T00:57:30;7.95;;;6.30;;
61689;SDS011;47601;52.086;4.878;2022-07-23T00:59:56;9.23;;;6.30;;
61689;SDS011;47601;52.086;4.878;2022-07-23T01:02:23;11.05;;;6.82;;
61689;SDS011;47601;52.086;4.878;2022-07-23T01:04:49;9.25;;;6.57;;
61689;SDS011;47601;52.086;4.878;2022-07-23T01:07:15;9.38;;;6.22;;
61689;SDS011;47601;52.086;4.878;2022-07-23T01:09:41;10.13;;;6.95;;
61689;SDS011;47601;52.086;4.878;2022-07-23T01:12:07;7.50;;;6.50;;
61689;SDS011;47601;52.086;4.878;2022-07-23T01:14:33;10.15;;;6.40;;
61689;SDS011;47601;52.086;4.878;2022-07-23T01:16:58;9.90;;;6.45;;
61689;SDS011;47601;52.086;4.878;2022-07-23T01:19:24;8.60;;;6.80;;
61689;SDS011;47601;52.086;4.878;2022-07-23T01:21:50;8.60;;;6.65;;
61689;SDS011;47601;52.086;4.878;2022-07-23T01:24:17;8.55;;;6.20;;
61689;SDS011;47601;52.086;4.878;2022-07-23T01:26:46;11.02;;;6.10;;
61689;SDS011;47601;52.086;4.878;2022-07-23T01:29:12;9.80;;;6.65;;
61689;SDS011;47601;52.086;4.878;2022-07-23T01:31:38;7.50;;;6.07;;
61689;SDS011;47601;52.086;4.878;2022-07-23T01:34:05;7.38;;;6.32;;
61689;SDS011;47601;52.086;4.878;2022-07-23T01:36:32;12.48;;;7.25;;
61689;SDS011;47601;52.086;4.878;2022-07-23T01:38:58;9.70;;;6.63;;
61689;SDS011;47601;52.086;4.878;2022-07-23T01:41:24;9.57;;;7.00;;
61689;SDS011;47601;52.086;4.878;2022-07-23T01:43:49;11.80;;;6.78;;
61689;SDS011;47601;52.086;4.878;2022-07-23T01:46:15;14.75;;;7.55;;
61689;SDS011;47601;52.086;4.878;2022-07-23T01:48:40;11.07;;;7.05;;
61689;SDS011;47601;52.086;4.878;2022-07-23T01:51:07;9.90;;;7.43;;
61689;SDS011;47601;52.086;4.878;2022-07-23T01:53:32;11.52;;;7.53;;
61689;SDS011;47601;52.086;4.878;2022-07-23T01:56:00;11.77;;;7.45;;
61689;SDS011;47601;52.086;4.878;2022-07-23T01:58:26;8.43;;;7.07;;
61689;SDS011;47601;52.086;4.878;2022-07-23T02:00:52;9.63;;;7.00;;
61689;SDS011;47601;52.086;4.878;2022-07-23T02:03:18;9.00;;;7.18;;
61689;SDS011;47601;52.086;4.878;2022-07-23T02:05:44;8.85;;;7.38;;
61689;SDS011;47601;52.086;4.878;2022-07-23T02:08:09;9.75;;;7.40;;
61689;SDS011;47601;52.086;4.878;2022-07-23T02:10:35;11.75;;;7.38;;
61689;SDS011;47601;52.086;4.878;2022-07-23T02:13:00;12.38;;;7.70;;
61689;SDS011;47601;52.086;4.878;2022-07-23T02:15:26;9.10;;;7.72;;
61689;SDS011;47601;52.086;4.878;2022-07-23T02:17:51;12.05;;;7.43;;
61689;SDS011;47601;52.086;4.878;2022-07-23T02:20:23;12.30;;;7.43;;
61689;SDS011;47601;52.086;4.878;2022-07-23T02:22:49;10.88;;;7.65;;
61689;SDS011;47601;52.086;4.878;2022-07-23T02:25:14;10.38;;;7.53;;
61689;SDS011;47601;52.086;4.878;2022-07-23T02:27:39;9.38;;;7.18;;
61689;SDS011;47601;52.086;4.878;2022-07-23T02:30:05;10.23;;;7.15;;
61689;SDS011;47601;52.086;4.878;2022-07-23T02:32:31;9.65;;;7.28;;
61689;SDS011;47601;52.086;4.878;2022-07-23T02:34:57;15.70;;;7.78;;
61689;SDS011;47601;52.086;4.878;2022-07-23T02:37:22;13.48;;;7.82;;
61689;SDS011;47601;52.086;4.878;2022-07-23T02:39:48;10.63;;;8.05;;
61689;SDS011;47601;52.086;4.878;2022-07-23T02:42:13;12.18;;;7.57;;
61689;SDS011;47601;52.086;4.878;2022-07-23T02:44:39;10.63;;;7.03;;
61689;SDS011;47601;52.086;4.878;2022-07-23T02:47:04;11.57;;;7.95;;
61689;SDS011;47601;52.086;4.878;2022-07-23T02:49:30;9.95;;;7.82;;
61689;SDS011;47601;52.086;4.878;2022-07-23T02:51:55;12.15;;;8.10;;
61689;SDS011;47601;52.086;4.878;2022-07-23T02:54:21;14.25;;;8.52;;
61689;SDS011;47601;52.086;4.878;2022-07-23T02:56:46;11.18;;;8.00;;
61689;SDS011;47601;52.086;4.878;2022-07-23T02:59:12;12.38;;;8.02;;
61689;SDS011;47601;52.086;4.878;2022-07-23T03:01:38;8.00;;;7.20;;
61689;SDS011;47601;52.086;4.878;2022-07-23T03:04:03;13.93;;;8.20;;
61689;SDS011;47601;52.086;4.878;2022-07-23T03:06:29;12.18;;;7.80;;
61689;SDS011;47601;52.086;4.878;2022-07-23T03:08:54;9.25;;;7.95;;
61689;SDS011;47601;52.086;4.878;2022-07-23T03:11:20;10.32;;;8.15;;
61689;SDS011;47601;52.086;4.878;2022-07-23T03:13:45;12.52;;;8.18;;
61689;SDS011;47601;52.086;4.878;2022-07-23T03:16:11;12.35;;;8.00;;
61689;SDS011;47601;52.086;4.878;2022-07-23T03:18:36;10.43;;;7.80;;
61689;SDS011;47601;52.086;4.878;2022-07-23T03:21:02;9.50;;;7.30;;
61689;SDS011;47601;52.086;4.878;2022-07-23T03:23:27;11.63;;;8.13;;
61689;SDS011;47601;52.086;4.878;2022-07-23T03:25:53;10.98;;;7.40;;
61689;SDS011;47601;52.086;4.878;2022-07-23T03:28:19;10.50;;;8.23;;
61689;SDS011;47601;52.086;4.878;2022-07-23T03:30:45;11.52;;;7.70;;
61689;SDS011;47601;52.086;4.878;2022-07-23T03:33:18;12.18;;;7.97;;
61689;SDS011;47601;52.086;4.878;2022-07-23T03:35:44;11.18;;;8.38;;
61689;SDS011;47601;52.086;4.878;2022-07-23T03:38:11;10.40;;;7.97;;
61689;SDS011;47601;52.086;4.878;2022-07-23T03:40:36;12.02;;;8.20;;
61689;SDS011;47601;52.086;4.878;2022-07-23T03:43:02;12.95;;;7.93;;
61689;SDS011;47601;52.086;4.878;2022-07-23T03:45:27;10.30;;;7.80;;
61689;SDS011;47601;52.086;4.878;2022-07-23T03:47:53;16.08;;;7.88;;
61689;SDS011;47601;52.086;4.878;2022-07-23T03:50:19;9.05;;;7.32;;
61689;SDS011;47601;52.086;4.878;2022-07-23T03:52:44;11.60;;;6.97;;
61689;SDS011;47601;52.086;4.878;2022-07-23T03:55:10;9.95;;;7.05;;
61689;SDS011;47601;52.086;4.878;2022-07-23T03:57:36;9.48;;;6.50;;
61689;SDS011;47601;52.086;4.878;2022-07-23T04:00:02;9.20;;;6.45;;
61689;SDS011;47601;52.086;4.878;2022-07-23T04:02:29;10.20;;;6.22;;
61689;SDS011;47601;52.086;4.878;2022-07-23T04:04:54;8.48;;;6.65;;
61689;SDS011;47601;52.086;4.878;2022-07-23T04:07:20;9.63;;;6.65;;
61689;SDS011;47601;52.086;4.878;2022-07-23T04:09:46;10.02;;;6.75;;
61689;SDS011;47601;52.086;4.878;2022-07-23T04:12:12;11.07;;;6.43;;
61689;SDS011;47601;52.086;4.878;2022-07-23T04:14:37;9.85;;;6.55;;
61689;SDS011;47601;52.086;4.878;2022-07-23T04:17:03;10.50;;;7.05;;
61689;SDS011;47601;52.086;4.878;2022-07-23T04:19:28;7.25;;;6.22;;
61689;SDS011;47601;52.086;4.878;2022-07-23T04:21:55;11.30;;;6.95;;
61689;SDS011;47601;52.086;4.878;2022-07-23T04:24:21;11.45;;;7.10;;
61689;SDS011;47601;52.086;4.878;2022-07-23T04:26:46;9.02;;;6.55;;
61689;SDS011;47601;52.086;4.878;2022-07-23T04:29:12;10.68;;;7.03;;
61689;SDS011;47601;52.086;4.878;2022-07-23T04:31:37;7.05;;;5.95;;
61689;SDS011;47601;52.086;4.878;2022-07-23T04:34:03;8.25;;;7.05;;
61689;SDS011;47601;52.086;4.878;2022-07-23T04:36:28;8.65;;;6.65;;
61689;SDS011;47601;52.086;4.878;2022-07-23T04:38:54;9.30;;;6.53;;
61689;SDS011;47601;52.086;4.878;2022-07-23T04:41:19;11.60;;;6.20;;
61689;SDS011;47601;52.086;4.878;2022-07-23T04:43:45;10.93;;;6.55;;
61689;SDS011;47601;52.086;4.878;2022-07-23T04:46:11;8.18;;;6.60;;
61689;SDS011;47601;52.086;4.878;2022-07-23T04:48:36;11.23;;;6.47;;
61689;SDS011;47601;52.086;4.878;2022-07-23T04:51:02;9.70;;;6.57;;
61689;SDS011;47601;52.086;4.878;2022-07-23T04:53:28;10.40;;;6.60;;
61689;SDS011;47601;52.086;4.878;2022-07-23T04:55:54;8.15;;;6.05;;
61689;SDS011;47601;52.086;4.878;2022-07-23T04:58:19;7.57;;;6.63;;
61689;SDS011;47601;52.086;4.878;2022-07-23T05:00:45;7.22;;;5.95;;
61689;SDS011;47601;52.086;4.878;2022-07-23T05:03:11;12.00;;;6.55;;
61689;SDS011;47601;52.086;4.878;2022-07-23T05:05:36;10.40;;;6.18;;
61689;SDS011;47601;52.086;4.878;2022-07-23T05:08:02;13.85;;;5.97;;
61689;SDS011;47601;52.086;4.878;2022-07-23T05:10:28;11.35;;;6.20;;
61689;SDS011;47601;52.086;4.878;2022-07-23T05:12:53;12.45;;;6.28;;
61689;SDS011;47601;52.086;4.878;2022-07-23T05:15:19;8.63;;;5.97;;
61689;SDS011;47601;52.086;4.878;2022-07-23T05:17:44;8.07;;;5.15;;
61689;SDS011;47601;52.086;4.878;2022-07-23T05:20:10;7.25;;;5.20;;
61689;SDS011;47601;52.086;4.878;2022-07-23T05:22:35;9.45;;;5.13;;
61689;SDS011;47601;52.086;4.878;2022-07-23T05:25:01;8.27;;;5.22;;
61689;SDS011;47601;52.086;4.878;2022-07-23T05:27:26;7.00;;;4.75;;
61689;SDS011;47601;52.086;4.878;2022-07-23T05:29:52;7.72;;;4.47;;
61689;SDS011;47601;52.086;4.878;2022-07-23T05:32:17;6.43;;;4.40;;
61689;SDS011;47601;52.086;4.878;2022-07-23T05:34:43;10.25;;;3.75;;
61689;SDS011;47601;52.086;4.878;2022-07-23T05:37:08;7.97;;;4.15;;
61689;SDS011;47601;52.086;4.878;2022-07-23T05:39:34;6.18;;;3.30;;
61689;SDS011;47601;52.086;4.878;2022-07-23T05:41:59;10.05;;;6.78;;
61689;SDS011;47601;52.086;4.878;2022-07-23T05:44:25;8.20;;;3.90;;
61689;SDS011;47601;52.086;4.878;2022-07-23T05:46:52;6.95;;;2.97;;
61689;SDS011;47601;52.086;4.878;2022-07-23T05:49:17;6.10;;;2.80;;
61689;SDS011;47601;52.086;4.878;2022-07-23T05:54:18;5.18;;;2.67;;
61689;SDS011;47601;52.086;4.878;2022-07-23T05:56:43;4.68;;;2.38;;
61689;SDS011;47601;52.086;4.878;2022-07-23T05:59:09;3.67;;;2.45;;
61689;SDS011;47601;52.086;4.878;2022-07-23T06:01:34;5.03;;;2.20;;
61689;SDS011;47601;52.086;4.878;2022-07-23T06:04:00;4.00;;;2.78;;
61689;SDS011;47601;52.086;4.878;2022-07-23T06:06:25;5.10;;;2.30;;
61689;SDS011;47601;52.086;4.878;2022-07-23T06:08:51;3.83;;;1.90;;
61689;SDS011;47601;52.086;4.878;2022-07-23T06:11:16;3.00;;;1.95;;
61689;SDS011;47601;52.086;4.878;2022-07-23T06:13:41;5.75;;;2.30;;
61689;SDS011;47601;52.086;4.878;2022-07-23T06:16:07;4.40;;;2.40;;
61689;SDS011;47601;52.086;4.878;2022-07-23T06:18:34;3.15;;;2.30;;
61689;SDS011;47601;52.086;4.878;2022-07-23T06:21:00;3.75;;;2.20;;
61689;SDS011;47601;52.086;4.878;2022-07-23T06:23:26;3.50;;;2.13;;
61689;SDS011;47601;52.086;4.878;2022-07-23T06:25:51;4.03;;;1.92;;
61689;SDS011;47601;52.086;4.878;2022-07-23T06:28:17;3.20;;;2.22;;
61689;SDS011;47601;52.086;4.878;2022-07-23T06:30:42;5.93;;;2.60;;
61689;SDS011;47601;52.086;4.878;2022-07-23T06:33:08;2.72;;;2.15;;
61689;SDS011;47601;52.086;4.878;2022-07-23T06:35:33;2.45;;;2.05;;
61689;SDS011;47601;52.086;4.878;2022-07-23T06:37:59;4.22;;;2.40;;
61689;SDS011;47601;52.086;4.878;2022-07-23T06:40:25;5.90;;;2.60;;
61689;SDS011;47601;52.086;4.878;2022-07-23T06:42:50;5.90;;;3.08;;
61689;SDS011;47601;52.086;4.878;2022-07-23T06:45:16;4.18;;;2.65;;
61689;SDS011;47601;52.086;4.878;2022-07-23T06:47:42;3.03;;;2.35;;
61689;SDS011;47601;52.086;4.878;2022-07-23T06:50:08;3.47;;;2.53;;
61689;SDS011;47601;52.086;4.878;2022-07-23T06:52:33;4.35;;;2.47;;
61689;SDS011;47601;52.086;4.878;2022-07-23T06:54:59;4.47;;;2.50;;
61689;SDS011;47601;52.086;4.878;2022-07-23T06:57:24;4.00;;;2.47;;
61689;SDS011;47601;52.086;4.878;2022-07-23T06:59:50;3.92;;;2.08;;
61689;SDS011;47601;52.086;4.878;2022-07-23T07:02:16;2.83;;;1.80;;
61689;SDS011;47601;52.086;4.878;2022-07-23T07:04:42;3.00;;;1.35;;
61689;SDS011;47601;52.086;4.878;2022-07-23T07:07:07;2.65;;;1.10;;
61689;SDS011;47601;52.086;4.878;2022-07-23T07:09:33;4.28;;;1.30;;
61689;SDS011;47601;52.086;4.878;2022-07-23T07:11:58;3.30;;;1.00;;
61689;SDS011;47601;52.086;4.878;2022-07-23T07:14:24;3.83;;;0.90;;
61689;SDS011;47601;52.086;4.878;2022-07-23T07:16:49;1.90;;;1.10;;
61689;SDS011;47601;52.086;4.878;2022-07-23T07:19:14;3.53;;;1.08;;
61689;SDS011;47601;52.086;4.878;2022-07-23T07:21:40;2.97;;;1.33;;
61689;SDS011;47601;52.086;4.878;2022-07-23T07:24:08;2.95;;;0.95;;
61689;SDS011;47601;52.086;4.878;2022-07-23T07:26:34;3.00;;;1.35;;
61689;SDS011;47601;52.086;4.878;2022-07-23T07:28:59;2.20;;;1.23;;
61689;SDS011;47601;52.086;4.878;2022-07-23T07:31:25;3.60;;;1.67;;
61689;SDS011;47601;52.086;4.878;2022-07-23T07:33:50;2.85;;;1.92;;
61689;SDS011;47601;52.086;4.878;2022-07-23T07:36:16;2.17;;;1.42;;
61689;SDS011;47601;52.086;4.878;2022-07-23T07:38:41;2.15;;;1.40;;
61689;SDS011;47601;52.086;4.878;2022-07-23T07:41:07;2.03;;;1.50;;
61689;SDS011;47601;52.086;4.878;2022-07-23T07:43:35;2.60;;;1.38;;
61689;SDS011;47601;52.086;4.878;2022-07-23T07:46:00;3.88;;;1.70;;
61689;SDS011;47601;52.086;4.878;2022-07-23T07:48:26;3.42;;;1.60;;
61689;SDS011;47601;52.086;4.878;2022-07-23T07:50:52;3.47;;;1.88;;
61689;SDS011;47601;52.086;4.878;2022-07-23T07:53:17;2.20;;;1.70;;
61689;SDS011;47601;52.086;4.878;2022-07-23T07:55:42;3.42;;;1.58;;
61689;SDS011;47601;52.086;4.878;2022-07-23T07:58:08;4.70;;;1.70;;
61689;SDS011;47601;52.086;4.878;2022-07-23T08:00:34;3.30;;;1.63;;
61689;SDS011;47601;52.086;4.878;2022-07-23T08:03:00;2.17;;;1.88;;
61689;SDS011;47601;52.086;4.878;2022-07-23T08:05:26;4.32;;;1.67;;
61689;SDS011;47601;52.086;4.878;2022-07-23T08:07:57;2.58;;;1.30;;
61689;SDS011;47601;52.086;4.878;2022-07-23T08:10:24;3.20;;;1.40;;
61689;SDS011;47601;52.086;4.878;2022-07-23T08:12:51;3.45;;;1.27;;
61689;SDS011;47601;52.086;4.878;2022-07-23T08:15:21;3.50;;;1.27;;
61689;SDS011;47601;52.086;4.878;2022-07-23T08:17:48;2.95;;;1.42;;
61689;SDS011;47601;52.086;4.878;2022-07-23T08:20:14;2.42;;;1.35;;
61689;SDS011;47601;52.086;4.878;2022-07-23T08:22:51;2.55;;;1.20;;
61689;SDS011;47601;52.086;4.878;2022-07-23T08:25:31;2.53;;;1.15;;
61689;SDS011;47601;52.086;4.878;2022-07-23T08:27:59;2.20;;;1.05;;
61689;SDS011;47601;52.086;4.878;2022-07-23T08:30:26;2.28;;;1.40;;
61689;SDS011;47601;52.086;4.878;2022-07-23T08:35:32;2.20;;;1.30;;
61689;SDS011;47601;52.086;4.878;2022-07-23T08:37:59;4.60;;;2.00;;
61689;SDS011;47601;52.086;4.878;2022-07-23T08:40:27;3.03;;;1.55;;
61689;SDS011;47601;52.086;4.878;2022-07-23T08:42:54;2.05;;;1.45;;
61689;SDS011;47601;52.086;4.878;2022-07-23T08:45:20;3.20;;;1.35;;
61689;SDS011;47601;52.086;4.878;2022-07-23T08:47:54;5.20;;;1.85;;
61689;SDS011;47601;52.086;4.878;2022-07-23T08:50:21;2.38;;;1.40;;
61689;SDS011;47601;52.086;4.878;2022-07-23T08:52:48;2.90;;;1.50;;
61689;SDS011;47601;52.086;4.878;2022-07-23T08:55:18;2.67;;;1.65;;
61689;SDS011;47601;52.086;4.878;2022-07-23T08:57:46;3.05;;;1.70;;
61689;SDS011;47601;52.086;4.878;2022-07-23T09:00:12;2.50;;;1.40;;
61689;SDS011;47601;52.086;4.878;2022-07-23T09:02:40;3.55;;;1.40;;
61689;SDS011;47601;52.086;4.878;2022-07-23T09:05:06;3.42;;;1.58;;
61689;SDS011;47601;52.086;4.878;2022-07-23T09:07:32;3.33;;;1.20;;
61689;SDS011;47601;52.086;4.878;2022-07-23T09:10:05;3.22;;;1.50;;
61689;SDS011;47601;52.086;4.878;2022-07-23T09:12:33;3.17;;;1.40;;
61689;SDS011;47601;52.086;4.878;2022-07-23T09:15:03;3.72;;;1.75;;
61689;SDS011;47601;52.086;4.878;2022-07-23T09:17:36;3.35;;;1.80;;
61689;SDS011;47601;52.086;4.878;2022-07-23T09:20:07;2.65;;;1.60;;
61689;SDS011;47601;52.086;4.878;2022-07-23T09:22:34;3.80;;;1.38;;
61689;SDS011;47601;52.086;4.878;2022-07-23T09:25:04;2.58;;;1.55;;
61689;SDS011;47601;52.086;4.878;2022-07-23T09:27:52;2.38;;;1.60;;
61689;SDS011;47601;52.086;4.878;2022-07-23T09:30:28;2.85;;;1.42;;
61689;SDS011;47601;52.086;4.878;2022-07-23T09:35:51;4.18;;;1.63;;
61689;SDS011;47601;52.086;4.878;2022-07-23T09:38:19;4.35;;;1.42;;
61689;SDS011;47601;52.086;4.878;2022-07-23T09:40:45;4.80;;;1.83;;
61689;SDS011;47601;52.086;4.878;2022-07-23T09:43:25;2.90;;;1.42;;
61689;SDS011;47601;52.086;4.878;2022-07-23T09:45:54;3.88;;;1.80;;
61689;SDS011;47601;52.086;4.878;2022-07-23T09:49:11;3.60;;;1.70;;
61689;SDS011;47601;52.086;4.878;2022-07-23T09:51:45;1.60;;;1.10;;
61689;SDS011;47601;52.086;4.878;2022-07-23T09:56:47;2.15;;;1.50;;
61689;SDS011;47601;52.086;4.878;2022-07-23T09:59:14;3.22;;;1.25;;
61689;SDS011;47601;52.086;4.878;2022-07-23T10:01:42;3.38;;;1.40;;
61689;SDS011;47601;52.086;4.878;2022-07-23T10:04:09;2.58;;;1.30;;
61689;SDS011;47601;52.086;4.878;2022-07-23T10:06:36;2.13;;;1.23;;
61689;SDS011;47601;52.086;4.878;2022-07-23T10:09:03;4.00;;;1.35;;
61689;SDS011;47601;52.086;4.878;2022-07-23T10:11:29;1.98;;;1.10;;
61689;SDS011;47601;52.086;4.878;2022-07-23T10:13:55;2.40;;;1.20;;
61689;SDS011;47601;52.086;4.878;2022-07-23T10:16:23;2.50;;;1.42;;
61689;SDS011;47601;52.086;4.878;2022-07-23T10:18:48;1.85;;;1.20;;
61689;SDS011;47601;52.086;4.878;2022-07-23T10:21:16;3.28;;;1.58;;
61689;SDS011;47601;52.086;4.878;2022-07-23T10:23:47;2.03;;;1.35;;
61689;SDS011;47601;52.086;4.878;2022-07-23T10:26:38;5.20;;;1.67;;
61689;SDS011;47601;52.086;4.878;2022-07-23T10:29:55;3.08;;;1.10;;
61689;SDS011;47601;52.086;4.878;2022-07-23T10:31:58;3.22;;;1.20;;
61689;SDS011;47601;52.086;4.878;2022-07-23T10:42:37;3.22;;;1.30;;
61689;SDS011;47601;52.086;4.878;2022-07-23T10:45:21;3.22;;;1.48;;
61689;SDS011;47601;52.086;4.878;2022-07-23T10:47:49;4.40;;;2.35;;
61689;SDS011;47601;52.086;4.878;2022-07-23T10:58:10;2.95;;;1.65;;
61689;SDS011;47601;52.086;4.878;2022-07-23T11:00:36;4.15;;;1.30;;
61689;SDS011;47601;52.086;4.878;2022-07-23T11:03:05;2.47;;;1.70;;
61689;SDS011;47601;52.086;4.878;2022-07-23T11:05:54;2.60;;;1.83;;
61689;SDS011;47601;52.086;4.878;2022-07-23T11:08:19;3.40;;;1.50;;
61689;SDS011;47601;52.086;4.878;2022-07-23T11:10:53;2.10;;;1.60;;
61689;SDS011;47601;52.086;4.878;2022-07-23T11:24:03;2.13;;;1.73;;
61689;SDS011;47601;52.086;4.878;2022-07-23T11:37:03;5.20;;;1.65;;
61689;SDS011;47601;52.086;4.878;2022-07-23T11:41:57;3.38;;;1.60;;
61689;SDS011;47601;52.086;4.878;2022-07-23T11:44:24;3.80;;;2.33;;
61689;SDS011;47601;52.086;4.878;2022-07-23T11:46:56;2.33;;;1.80;;
61689;SDS011;47601;52.086;4.878;2022-07-23T11:49:25;2.90;;;2.10;;
61689;SDS011;47601;52.086;4.878;2022-07-23T11:52:13;3.20;;;1.90;;
61689;SDS011;47601;52.086;4.878;2022-07-23T11:54:56;3.13;;;2.22;;
61689;SDS011;47601;52.086;4.878;2022-07-23T11:57:27;5.30;;;2.05;;
61689;SDS011;47601;52.086;4.878;2022-07-23T12:00:05;2.17;;;1.90;;
61689;SDS011;47601;52.086;4.878;2022-07-23T12:02:35;4.97;;;1.73;;
61689;SDS011;47601;52.086;4.878;2022-07-23T12:05:00;2.63;;;1.80;;
61689;SDS011;47601;52.086;4.878;2022-07-23T12:07:30;2.58;;;1.73;;
61689;SDS011;47601;52.086;4.878;2022-07-23T12:10:00;3.45;;;1.67;;
61689;SDS011;47601;52.086;4.878;2022-07-23T12:12:34;3.03;;;2.08;;
61689;SDS011;47601;52.086;4.878;2022-07-23T12:15:04;2.30;;;1.70;;
61689;SDS011;47601;52.086;4.878;2022-07-23T12:17:31;2.30;;;2.07;;
61689;SDS011;47601;52.086;4.878;2022-07-23T12:19:59;3.55;;;1.67;;
61689;SDS011;47601;52.086;4.878;2022-07-23T12:22:26;4.57;;;2.00;;
61689;SDS011;47601;52.086;4.878;2022-07-23T12:25:01;3.50;;;2.22;;
61689;SDS011;47601;52.086;4.878;2022-07-23T12:27:33;2.05;;;1.70;;
61689;SDS011;47601;52.086;4.878;2022-07-23T12:30:14;3.00;;;1.73;;
61689;SDS011;47601;52.086;4.878;2022-07-23T12:32:50;3.47;;;1.80;;
61689;SDS011;47601;52.086;4.878;2022-07-23T12:35:17;2.45;;;1.80;;
61689;SDS011;47601;52.086;4.878;2022-07-23T12:37:44;3.25;;;1.80;;
61689;SDS011;47601;52.086;4.878;2022-07-23T12:40:27;4.53;;;1.77;;
61689;SDS011;47601;52.086;4.878;2022-07-23T12:43:02;4.78;;;2.15;;
61689;SDS011;47601;52.086;4.878;2022-07-23T12:45:41;4.65;;;1.73;;
61689;SDS011;47601;52.086;4.878;2022-07-23T12:48:08;7.72;;;1.70;;
61689;SDS011;47601;52.086;4.878;2022-07-23T12:50:50;3.45;;;2.40;;
61689;SDS011;47601;52.086;4.878;2022-07-23T12:53:18;2.53;;;1.92;;
61689;SDS011;47601;52.086;4.878;2022-07-23T12:55:46;2.80;;;1.80;;
61689;SDS011;47601;52.086;4.878;2022-07-23T12:58:14;2.60;;;1.60;;
61689;SDS011;47601;52.086;4.878;2022-07-23T13:03:23;4.40;;;2.30;;
61689;SDS011;47601;52.086;4.878;2022-07-23T13:05:49;2.80;;;1.98;;
61689;SDS011;47601;52.086;4.878;2022-07-23T13:08:14;3.63;;;2.42;;
61689;SDS011;47601;52.086;4.878;2022-07-23T13:10:40;2.90;;;1.85;;
61689;SDS011;47601;52.086;4.878;2022-07-23T13:13:11;2.42;;;1.83;;
61689;SDS011;47601;52.086;4.878;2022-07-23T13:15:37;3.15;;;1.70;;
61689;SDS011;47601;52.086;4.878;2022-07-23T13:18:02;3.63;;;1.45;;
61689;SDS011;47601;52.086;4.878;2022-07-23T13:20:28;3.10;;;1.70;;
61689;SDS011;47601;52.086;4.878;2022-07-23T13:22:53;4.20;;;1.58;;
61689;SDS011;47601;52.086;4.878;2022-07-23T13:25:19;3.45;;;1.90;;
61689;SDS011;47601;52.086;4.878;2022-07-23T13:27:44;3.55;;;1.70;;
61689;SDS011;47601;52.086;4.878;2022-07-23T13:30:09;2.38;;;1.33;;
61689;SDS011;47601;52.086;4.878;2022-07-23T13:32:36;2.80;;;1.70;;
61689;SDS011;47601;52.086;4.878;2022-07-23T13:35:02;1.83;;;1.40;;
61689;SDS011;47601;52.086;4.878;2022-07-23T13:37:27;1.80;;;1.60;;
61689;SDS011;47601;52.086;4.878;2022-07-23T13:39:53;4.00;;;1.63;;
61689;SDS011;47601;52.086;4.878;2022-07-23T13:42:18;2.10;;;1.55;;
61689;SDS011;47601;52.086;4.878;2022-07-23T13:44:43;3.58;;;1.70;;
61689;SDS011;47601;52.086;4.878;2022-07-23T13:47:09;2.05;;;1.45;;
61689;SDS011;47601;52.086;4.878;2022-07-23T13:49:34;2.13;;;1.77;;
61689;SDS011;47601;52.086;4.878;2022-07-23T13:52:00;3.60;;;1.73;;
61689;SDS011;47601;52.086;4.878;2022-07-23T13:54:25;2.28;;;1.60;;
61689;SDS011;47601;52.086;4.878;2022-07-23T13:56:50;2.60;;;1.88;;
61689;SDS011;47601;52.086;4.878;2022-07-23T13:59:16;4.72;;;1.90;;
61689;SDS011;47601;52.086;4.878;2022-07-23T14:01:42;2.10;;;1.90;;
61689;SDS011;47601;52.086;4.878;2022-07-23T14:04:09;5.70;;;2.50;;
61689;SDS011;47601;52.086;4.878;2022-07-23T14:06:34;4.28;;;1.73;;
61689;SDS011;47601;52.086;4.878;2022-07-23T14:09:00;2.28;;;1.65;;
61689;SDS011;47601;52.086;4.878;2022-07-23T14:11:25;3.85;;;2.00;;
61689;SDS011;47601;52.086;4.878;2022-07-23T14:13:50;2.45;;;1.75;;
61689;SDS011;47601;52.086;4.878;2022-07-23T14:16:16;2.25;;;2.05;;
61689;SDS011;47601;52.086;4.878;2022-07-23T14:18:41;4.47;;;2.00;;
61689;SDS011;47601;52.086;4.878;2022-07-23T14:21:07;3.83;;;2.35;;
61689;SDS011;47601;52.086;4.878;2022-07-23T14:23:32;3.33;;;2.28;;
61689;SDS011;47601;52.086;4.878;2022-07-23T14:25:58;3.38;;;2.42;;
61689;SDS011;47601;52.086;4.878;2022-07-23T14:28:24;2.72;;;2.30;;
61689;SDS011;47601;52.086;4.878;2022-07-23T14:30:49;2.75;;;2.17;;
61689;SDS011;47601;52.086;4.878;2022-07-23T14:33:14;2.08;;;1.80;;
61689;SDS011;47601;52.086;4.878;2022-07-23T14:35:40;3.42;;;1.88;;
61689;SDS011;47601;52.086;4.878;2022-07-23T14:38:06;4.38;;;2.60;;
61689;SDS011;47601;52.086;4.878;2022-07-23T14:40:31;2.78;;;1.88;;
61689;SDS011;47601;52.086;4.878;2022-07-23T14:42:56;2.80;;;2.60;;
61689;SDS011;47601;52.086;4.878;2022-07-23T14:45:22;3.70;;;2.53;;
61689;SDS011;47601;52.086;4.878;2022-07-23T14:47:47;3.33;;;2.75;;
61689;SDS011;47601;52.086;4.878;2022-07-23T14:50:13;3.38;;;2.90;;
61689;SDS011;47601;52.086;4.878;2022-07-23T14:52:39;4.43;;;2.78;;
61689;SDS011;47601;52.086;4.878;2022-07-23T14:55:04;3.40;;;2.85;;
61689;SDS011;47601;52.086;4.878;2022-07-23T14:57:30;3.67;;;2.53;;
61689;SDS011;47601;52.086;4.878;2022-07-23T14:59:56;3.97;;;3.10;;
61689;SDS011;47601;52.086;4.878;2022-07-23T15:02:21;4.35;;;2.90;;
61689;SDS011;47601;52.086;4.878;2022-07-23T15:04:46;4.47;;;2.40;;
61689;SDS011;47601;52.086;4.878;2022-07-23T15:07:12;4.65;;;2.72;;
61689;SDS011;47601;52.086;4.878;2022-07-23T15:09:37;4.88;;;3.10;;
61689;SDS011;47601;52.086;4.878;2022-07-23T15:12:03;3.15;;;2.70;;
61689;SDS011;47601;52.086;4.878;2022-07-23T15:14:29;3.05;;;2.30;;
61689;SDS011;47601;52.086;4.878;2022-07-23T15:16:54;2.72;;;2.42;;
61689;SDS011;47601;52.086;4.878;2022-07-23T15:19:20;3.60;;;2.20;;
61689;SDS011;47601;52.086;4.878;2022-07-23T15:21:45;3.75;;;2.38;;
61689;SDS011;47601;52.086;4.878;2022-07-23T15:24:11;4.80;;;2.55;;
61689;SDS011;47601;52.086;4.878;2022-07-23T15:26:36;3.50;;;2.38;;
61689;SDS011;47601;52.086;4.878;2022-07-23T15:29:02;2.45;;;2.13;;
61689;SDS011;47601;52.086;4.878;2022-07-23T15:31:28;3.92;;;2.15;;
61689;SDS011;47601;52.086;4.878;2022-07-23T15:33:54;5.65;;;2.70;;
61689;SDS011;47601;52.086;4.878;2022-07-23T15:36:20;4.47;;;4.05;;
61689;SDS011;47601;52.086;4.878;2022-07-23T15:38:45;3.00;;;2.65;;